Time;durP1;ratioP1;P1;durP2;ratioP2;P2;SDS_P1;SDS_P2;PMS_P1;PMS_P2;Temp;Humidity;BMP_temperature;BMP_pressure;BME280_temperature;BME280_humidity;BME280_pressure;Samples;Min_cycle;Max_cycle;Signal;HPM_P1;HPM_P2
2023/12/25 00:00:16;;;;;;;;;;;10.70;99.90;;;;;;5045598;28;19934;-87
2023/12/25 00:02:42;;;;;;;;;;;10.80;99.90;;;;;;5053315;28;19931;-90
2023/12/25 00:05:07;;;;;;;;;;;10.80;99.90;;;;;;5053521;28;20260;-86
2023/12/25 00:07:33;;;;;;;;;;;10.70;99.90;;;;;;5061883;28;19973;-92
2023/12/25 00:09:58;;;;;;;;;;;10.80;99.90;;;;;;5029431;28;19920;-89
2023/12/25 00:12:25;;;;;;;;;;;10.80;99.90;;;;;;5059458;28;19935;-87
2023/12/25 00:14:50;;;;;;;;;;;10.80;99.90;;;;;;5072809;28;19959;-88
2023/12/25 00:17:16;;;;;;;;;;;10.80;99.90;;;;;;5063943;28;19924;-89
2023/12/25 00:19:42;;;;;;;;;;;10.70;99.90;;;;;;5071132;28;19924;-90
2023/12/25 00:22:07;;;;;;;;;;;10.80;99.90;;;;;;5039848;28;19946;-90
2023/12/25 00:24:33;;;;;;;;;;;10.70;99.90;;;;;;5040316;28;19982;-88
2023/12/25 00:26:58;;;;;;;;;;;10.80;99.90;;;;;;5074626;28;20006;-91
2023/12/25 00:29:24;;;;;;;;;;;10.80;99.90;;;;;;5074116;28;19996;-90
2023/12/25 00:31:50;;;;;;;;;;;10.80;99.90;;;;;;5063153;28;19928;-90
2023/12/25 00:34:15;;;;;;;;;;;10.80;99.90;;;;;;5083689;28;20011;-86
2023/12/25 00:36:41;;;;;;;;;;;10.80;99.90;;;;;;5067570;28;19920;-89
2023/12/25 00:39:07;;;;;;;;;;;10.90;99.90;;;;;;5078314;28;19920;-88
2023/12/25 00:41:33;;;;;;;;;;;10.80;99.90;;;;;;5055003;28;20007;-87
2023/12/25 00:43:59;;;;;;;;;;;10.80;99.90;;;;;;5074267;28;20023;-90
2023/12/25 00:46:25;;;;;;;;;;;10.80;99.90;;;;;;5074720;28;20333;-87
2023/12/25 00:48:50;;;;;;;;;;;10.80;99.90;;;;;;5038458;28;19921;-90
2023/12/25 00:51:16;;;;;;;;;;;10.80;99.90;;;;;;5055747;28;19989;-89
2023/12/25 00:53:41;;;;;;;;;;;10.80;99.90;;;;;;5075491;28;19920;-86
2023/12/25 00:56:08;;;;;;;;;;;10.80;99.90;;;;;;5053843;28;19921;-89
2023/12/25 00:58:34;;;;;;;;;;;10.80;99.90;;;;;;5032969;28;19932;-89
2023/12/25 01:00:59;;;;;;;;;;;10.80;99.90;;;;;;5059500;28;20414;-88
2023/12/25 01:03:25;;;;;;;;;;;;;;;;;;5078759;28;19920;-85
2023/12/25 01:05:51;;;;;;;;;;;10.80;99.90;;;;;;5061245;28;20078;-89
2023/12/25 01:08:17;;;;;;;;;;;10.80;99.90;;;;;;5076593;28;20098;-88
2023/12/25 01:10:42;;;;;;;;;;;10.80;99.90;;;;;;5057745;28;19939;-89
2023/12/25 01:13:08;;;;;;;;;;;;;;;;;;5055516;28;19920;-90
2023/12/25 01:15:34;;;;;;;;;;;10.70;99.90;;;;;;5056232;28;19928;-89
2023/12/25 01:17:59;;;;;;;;;;;10.60;99.90;;;;;;5046559;28;19932;-88
2023/12/25 01:20:25;;;;;;;;;;;10.70;99.90;;;;;;5034872;28;19927;-89
2023/12/25 01:22:51;;;;;;;;;;;10.70;99.90;;;;;;5062824;28;19920;-90
2023/12/25 01:25:17;;;;;;;;;;;;;;;;;;5044572;28;19962;-90
2023/12/25 01:27:42;;;;;;;;;;;10.60;99.90;;;;;;5056494;28;20318;-86
2023/12/25 01:30:11;;;;;;;;;;;10.60;99.90;;;;;;5077998;28;19920;-89
2023/12/25 01:32:37;;;;;;;;;;;10.60;99.90;;;;;;5060851;28;19934;-88
2023/12/25 01:35:04;;;;;;;;;;;10.50;99.90;;;;;;5061885;28;19920;-89
2023/12/25 01:37:29;;;;;;;;;;;10.60;99.90;;;;;;5057412;28;19982;-89
2023/12/25 01:39:55;;;;;;;;;;;10.40;99.90;;;;;;5046112;28;19920;-88
2023/12/25 01:42:21;;;;;;;;;;;10.50;99.90;;;;;;5066803;28;19931;-89
2023/12/25 01:44:47;;;;;;;;;;;10.50;99.90;;;;;;5042388;28;19932;-88
2023/12/25 01:47:13;;;;;;;;;;;10.50;99.90;;;;;;5043553;28;20003;-90
2023/12/25 01:49:39;;;;;;;;;;;;;;;;;;5053116;28;19984;-88
2023/12/25 01:52:05;;;;;;;;;;;10.30;99.90;;;;;;5060740;28;19951;-88
2023/12/25 01:54:32;;;;;;;;;;;10.30;99.90;;;;;;5057091;28;20458;-91
2023/12/25 01:56:58;;;;;;;;;;;10.30;99.90;;;;;;5048648;28;19920;-88
2023/12/25 01:59:28;;;;;;;;;;;10.00;99.90;;;;;;5058191;28;20261;-90
2023/12/25 02:01:54;;;;;;;;;;;10.30;99.90;;;;;;5052340;28;19977;-85
2023/12/25 02:04:19;;;;;;;;;;;10.30;99.90;;;;;;5057808;28;19960;-89
2023/12/25 02:06:46;;;;;;;;;;;10.20;99.90;;;;;;5064771;28;20379;-87
2023/12/25 02:09:12;;;;;;;;;;;10.20;99.90;;;;;;5078160;28;19977;-91
2023/12/25 02:11:41;;;;;;;;;;;10.20;99.90;;;;;;5059352;28;19932;-86
2023/12/25 02:14:07;;;;;;;;;;;10.20;99.90;;;;;;5091589;28;19924;-89
2023/12/25 02:16:33;;;;;;;;;;;10.20;99.90;;;;;;5043969;28;19920;-89
2023/12/25 02:18:59;;;;;;;;;;;10.20;99.90;;;;;;5071680;28;20011;-85
2023/12/25 02:21:25;;;;;;;;;;;10.10;99.90;;;;;;5053444;28;20800;-88
2023/12/25 02:23:54;;;;;;;;;;;10.10;99.90;;;;;;5044178;28;20353;-90
2023/12/25 02:26:19;;;;;;;;;;;10.10;99.90;;;;;;5054251;28;19920;-89
2023/12/25 02:28:45;;;;;;;;;;;;;;;;;;5059884;28;19992;-88
2023/12/25 02:31:11;;;;;;;;;;;;;;;;;;5050236;28;19935;-88
2023/12/25 02:33:37;;;;;;;;;;;;;;;;;;5053022;28;19982;-88
2023/12/25 02:36:03;;;;;;;;;;;;;;;;;;5052369;28;20010;-85
2023/12/25 02:38:29;;;;;;;;;;;;;;;;;;5058391;28;20004;-87
2023/12/25 02:40:55;;;;;;;;;;;;;;;;;;5060092;28;20476;-87
2023/12/25 02:43:21;;;;;;;;;;;;;;;;;;5058461;28;20003;-86
2023/12/25 02:45:47;;;;;;;;;;;;;;;;;;5058776;28;19920;-86
2023/12/25 02:48:13;;;;;;;;;;;;;;;;;;5058479;28;20003;-87
2023/12/25 02:50:39;;;;;;;;;;;;;;;;;;5077147;28;20248;-91
2023/12/25 02:53:05;;;;;;;;;;;;;;;;;;5075571;28;19924;-89
2023/12/25 02:55:31;;;;;;;;;;;;;;;;;;5065866;28;19964;-87
2023/12/25 02:57:57;;;;;;;;;;;;;;;;;;5075005;28;19981;-92
2023/12/25 03:00:23;;;;;;;;;;;;;;;;;;5049793;28;19931;-91
2023/12/25 03:02:49;;;;;;;;;;;;;;;;;;5074196;28;20396;-88
2023/12/25 03:05:15;;;;;;;;;;;;;;;;;;5071085;28;19973;-87
2023/12/25 03:07:41;;;;;;;;;;;;;;;;;;5076367;28;19928;-87
2023/12/25 03:10:07;;;;;;;;;;;;;;;;;;5060721;28;19920;-89
2023/12/25 03:12:33;;;;;;;;;;;;;;;;;;5061497;28;19928;-88
2023/12/25 03:14:59;;;;;;;;;;;;;;;;;;5068960;28;19920;-87
2023/12/25 03:17:25;;;;;;;;;;;;;;;;;;5056431;28;19930;-88
2023/12/25 03:19:51;;;;;;;;;;;;;;;;;;5046439;28;20031;-88
2023/12/25 03:22:17;;;;;;;;;;;;;;;;;;5073293;28;19955;-87
2023/12/25 03:24:43;;;;;;;;;;;;;;;;;;5055520;28;19935;-89
2023/12/25 03:27:09;;;;;;;;;;;;;;;;;;5073795;28;19919;-87
2023/12/25 03:29:35;;;;;;;;;;;;;;;;;;5067575;28;20007;-85
2023/12/25 03:32:01;;;;;;;;;;;;;;;;;;5056800;28;19925;-88
2023/12/25 03:34:27;;;;;;;;;;;;;;;;;;5061790;28;19975;-90
2023/12/25 03:36:53;;;;;;;;;;;;;;;;;;5048886;28;19963;-89
2023/12/25 03:39:19;;;;;;;;;;;;;;;;;;5048833;28;19929;-86
2023/12/25 03:41:45;;;;;;;;;;;;;;;;;;5054796;28;20329;-89
2023/12/25 03:44:11;;;;;;;;;;;;;;;;;;5046935;28;19931;-89
2023/12/25 03:46:37;;;;;;;;;;;;;;;;;;5036859;28;19955;-89
2023/12/25 03:49:03;;;;;;;;;;;;;;;;;;5038645;28;19921;-87
2023/12/25 03:51:29;;;;;;;;;;;;;;;;;;5038023;28;19924;-88
2023/12/25 03:53:55;;;;;;;;;;;;;;;;;;5038454;28;19924;-87
2023/12/25 03:56:21;;;;;;;;;;;;;;;;;;5040065;28;19946;-86
2023/12/25 03:58:47;;;;;;;;;;;;;;;;;;5035812;28;19925;-88
2023/12/25 04:01:13;;;;;;;;;;;;;;;;;;5038577;28;19947;-87
2023/12/25 04:03:39;;;;;;;;;;;;;;;;;;5037944;28;19954;-90
2023/12/25 04:06:05;;;;;;;;;;;;;;;;;;5040821;28;20240;-83
2023/12/25 04:08:31;;;;;;;;;;;;;;;;;;5039574;28;19921;-86
2023/12/25 04:10:57;;;;;;;;;;;;;;;;;;5039226;28;20345;-88
2023/12/25 04:13:23;;;;;;;;;;;;;;;;;;5040116;28;19988;-88
2023/12/25 04:15:49;;;;;;;;;;;;;;;;;;5039307;28;19956;-87
2023/12/25 04:18:15;;;;;;;;;;;;;;;;;;5039387;28;20415;-86
2023/12/25 04:20:41;;;;;;;;;;;;;;;;;;5039136;28;19920;-91
2023/12/25 04:23:07;;;;;;;;;;;;;;;;;;5044803;28;19972;-88
2023/12/25 04:25:33;;;;;;;;;;;;;;;;;;5037897;28;19967;-84
2023/12/25 04:27:59;;;;;;;;;;;;;;;;;;5041272;28;20027;-85
2023/12/25 04:30:25;;;;;;;;;;;;;;;;;;5037074;28;19952;-88
2023/12/25 04:32:51;;;;;;;;;;;;;;;;;;5035274;28;19936;-84
2023/12/25 04:35:17;;;;;;;;;;;;;;;;;;5033693;28;20467;-87
2023/12/25 04:37:43;;;;;;;;;;;;;;;;;;5036961;28;20025;-84
2023/12/25 04:40:09;;;;;;;;;;;;;;;;;;5043583;28;19920;-85
2023/12/25 04:42:34;;;;;;;;;;;;;;;;;;5039867;28;19924;-88
2023/12/25 04:45:00;;;;;;;;;;;;;;;;;;5054759;28;19927;-86
2023/12/25 04:47:26;;;;;;;;;;;;;;;;;;5074760;28;20011;-86
2023/12/25 04:49:52;;;;;;;;;;;;;;;;;;5059813;28;19977;-89
2023/12/25 04:52:18;;;;;;;;;;;;;;;;;;5056424;28;19925;-87
2023/12/25 04:54:44;;;;;;;;;;;;;;;;;;5057799;28;20139;-88
2023/12/25 04:57:10;;;;;;;;;;;;;;;;;;5055382;28;19928;-90
2023/12/25 04:59:36;;;;;;;;;;;;;;;;;;5061486;28;20037;-89
2023/12/25 05:02:03;;;;;;;;;;;;;;;;;;5052769;28;19924;-85
2023/12/25 05:04:29;;;;;;;;;;;;;;;;;;5060671;28;19931;-90
2023/12/25 05:06:55;;;;;;;;;;;;;;;;;;5062540;28;20006;-88
2023/12/25 05:09:21;;;;;;;;;;;;;;;;;;5061983;28;19920;-85
2023/12/25 05:11:47;;;;;;;;;;;;;;;;;;5061104;28;20361;-85
2023/12/25 05:14:12;;;;;;;;;;;10.00;99.90;;;;;;5062645;28;19959;-87
2023/12/25 05:16:38;;;;;;;;;;;9.80;99.90;;;;;;5045464;28;20345;-88
2023/12/25 05:19:03;;;;;;;;;;;9.80;99.90;;;;;;5055926;28;19924;-85
2023/12/25 05:21:29;;;;;;;;;;;9.80;99.90;;;;;;5062555;28;19924;-89
2023/12/25 05:23:55;;;;;;;;;;;9.80;99.90;;;;;;5050613;28;19928;-90
2023/12/25 05:26:21;;;;;;;;;;;9.80;99.90;;;;;;5062629;28;19930;-86
2023/12/25 05:28:47;;;;;;;;;;;9.70;99.90;;;;;;5041883;28;19924;-87
2023/12/25 05:31:13;;;;;;;;;;;9.70;99.90;;;;;;5043192;28;19933;-91
2023/12/25 05:33:39;;;;;;;;;;;9.70;99.90;;;;;;5075258;28;19920;-91
2023/12/25 05:36:04;;;;;;;;;;;9.70;99.90;;;;;;5067370;28;20015;-89
2023/12/25 05:38:30;;;;;;;;;;;9.70;99.90;;;;;;5045578;28;19973;-86
2023/12/25 05:40:55;;;;;;;;;;;9.60;99.90;;;;;;5071598;28;19920;-87
2023/12/25 05:43:21;;;;;;;;;;;9.60;99.90;;;;;;5069606;28;19935;-88
2023/12/25 05:45:47;;;;;;;;;;;9.60;99.90;;;;;;5074738;28;19986;-88
2023/12/25 05:48:12;;;;;;;;;;;9.50;99.90;;;;;;5060163;28;19978;-84
2023/12/25 05:50:38;;;;;;;;;;;9.60;99.90;;;;;;5072320;28;19925;-84
2023/12/25 05:53:04;;;;;;;;;;;9.60;99.90;;;;;;5055406;28;19924;-86
2023/12/25 05:55:29;;;;;;;;;;;9.50;99.90;;;;;;5061986;28;19921;-83
2023/12/25 05:57:55;;;;;;;;;;;9.50;99.90;;;;;;5070358;28;19920;-85
2023/12/25 06:00:20;;;;;;;;;;;9.50;99.90;;;;;;5061383;28;20370;-86
2023/12/25 06:02:46;;;;;;;;;;;9.50;99.90;;;;;;5039673;28;19928;-89
2023/12/25 06:05:12;;;;;;;;;;;9.50;99.90;;;;;;5051137;28;19927;-84
2023/12/25 06:07:38;;;;;;;;;;;9.50;99.90;;;;;;5075436;28;19928;-86
2023/12/25 06:10:04;;;;;;;;;;;9.40;99.90;;;;;;5052101;28;19930;-89
2023/12/25 06:12:29;;;;;;;;;;;9.40;99.90;;;;;;5047397;28;20246;-89
2023/12/25 06:14:55;;;;;;;;;;;9.40;99.90;;;;;;5044018;28;19924;-86
2023/12/25 06:17:20;;;;;;;;;;;9.40;99.90;;;;;;5052057;28;19920;-86
2023/12/25 06:19:46;;;;;;;;;;;9.30;99.90;;;;;;5087516;28;19967;-87
2023/12/25 06:22:12;;;;;;;;;;;9.30;99.90;;;;;;5063428;28;20248;-87
2023/12/25 06:24:37;;;;;;;;;;;9.30;99.90;;;;;;5072493;28;19920;-87
2023/12/25 06:27:03;;;;;;;;;;;9.30;99.90;;;;;;5058875;28;19967;-88
2023/12/25 06:29:29;;;;;;;;;;;;;;;;;;5034763;28;20311;-87
2023/12/25 06:31:55;;;;;;;;;;;;;;;;;;5050752;28;19939;-90
2023/12/25 06:34:21;;;;;;;;;;;;;;;;;;5053865;28;20372;-85
2023/12/25 06:36:47;;;;;;;;;;;;;;;;;;5047876;28;19923;-86
2023/12/25 06:39:13;;;;;;;;;;;;;;;;;;5058309;28;19931;-88
2023/12/25 06:41:39;;;;;;;;;;;;;;;;;;5057548;28;19924;-87
2023/12/25 06:44:05;;;;;;;;;;;;;;;;;;5049402;28;19928;-87
2023/12/25 06:46:31;;;;;;;;;;;;;;;;;;5039636;28;20021;-87
2023/12/25 06:48:57;;;;;;;;;;;;;;;;;;5045377;28;19975;-88
2023/12/25 06:51:23;;;;;;;;;;;;;;;;;;5036878;28;20007;-86
2023/12/25 06:53:50;;;;;;;;;;;;;;;;;;5038795;28;19924;-88
2023/12/25 06:56:16;;;;;;;;;;;;;;;;;;5039668;28;19981;-88
2023/12/25 06:58:42;;;;;;;;;;;;;;;;;;5054537;28;20310;-89
2023/12/25 07:01:08;;;;;;;;;;;;;;;;;;5046699;28;19920;-86
2023/12/25 07:03:34;;;;;;;;;;;;;;;;;;5040420;28;19985;-88
2023/12/25 07:06:00;;;;;;;;;;;;;;;;;;5040304;28;19951;-89
2023/12/25 07:08:27;;;;;;;;;;;;;;;;;;5038642;28;19920;-87
2023/12/25 07:10:53;;;;;;;;;;;;;;;;;;5038215;28;20270;-88
2023/12/25 07:13:19;;;;;;;;;;;;;;;;;;5038019;28;19931;-88
2023/12/25 07:15:45;;;;;;;;;;;;;;;;;;5040790;28;20487;-87
2023/12/25 07:18:11;;;;;;;;;;;;;;;;;;5038148;28;20434;-88
2023/12/25 07:20:37;;;;;;;;;;;;;;;;;;5055328;28;20011;-88
2023/12/25 07:23:03;;;;;;;;;;;;;;;;;;5054601;28;19927;-85
2023/12/25 07:25:29;;;;;;;;;;;;;;;;;;5038849;28;19932;-88
2023/12/25 07:27:55;;;;;;;;;;;;;;;;;;5036184;28;19935;-87
2023/12/25 07:30:21;;;;;;;;;;;;;;;;;;5050838;28;20391;-87
2023/12/25 07:32:47;;;;;;;;;;;;;;;;;;5035257;28;19929;-88
2023/12/25 07:35:13;;;;;;;;;;;;;;;;;;5031819;28;19921;-88
2023/12/25 07:37:39;;;;;;;;;;;;;;;;;;5033896;28;20195;-89
2023/12/25 07:40:05;;;;;;;;;;;;;;;;;;5034412;28;19928;-90
2023/12/25 07:42:31;;;;;;;;;;;9.20;99.90;;;;;;5035507;28;19921;-87
2023/12/25 07:44:57;;;;;;;;;;;;;;;;;;5030276;28;19924;-86
2023/12/25 07:47:23;;;;;;;;;;;9.10;99.90;;;;;;5039004;28;20004;-86
2023/12/25 07:49:48;;;;;;;;;;;9.30;99.90;;;;;;5018517;28;19964;-90
2023/12/25 07:52:14;;;;;;;;;;;9.30;99.90;;;;;;5016780;28;19940;-86
2023/12/25 07:54:39;;;;;;;;;;;9.40;99.90;;;;;;5016344;28;19998;-88
2023/12/25 07:57:05;;;;;;;;;;;9.40;99.90;;;;;;5021576;28;20259;-89
2023/12/25 07:59:30;;;;;;;;;;;9.40;99.90;;;;;;5020216;28;19947;-89
2023/12/25 08:01:56;;;;;;;;;;;9.30;99.90;;;;;;5014567;28;20410;-93
2023/12/25 08:04:22;;;;;;;;;;;;;;;;;;5037307;28;19920;-91
2023/12/25 08:06:48;;;;;;;;;;;9.20;99.90;;;;;;5046981;28;19920;-84
2023/12/25 08:09:13;;;;;;;;;;;9.20;99.90;;;;;;5035393;28;19924;-86
2023/12/25 08:11:39;;;;;;;;;;;;;;;;;;5018010;28;19932;-85
2023/12/25 08:14:05;;;;;;;;;;;9.00;99.90;;;;;;5036508;28;19991;-89
2023/12/25 08:16:31;;;;;;;;;;;;;;;;;;5015890;28;20078;-86
2023/12/25 08:18:57;;;;;;;;;;;;;;;;;;5048498;28;19920;-92
2023/12/25 08:21:23;;;;;;;;;;;;;;;;;;5052955;28;19921;-89
2023/12/25 08:23:49;;;;;;;;;;;;;;;;;;5035485;28;19932;-88
2023/12/25 08:26:15;;;;;;;;;;;;;;;;;;5037639;28;20003;-88
2023/12/25 08:28:41;;;;;;;;;;;;;;;;;;5034503;28;19921;-90
2023/12/25 08:31:07;;;;;;;;;;;;;;;;;;5045485;28;20362;-84
2023/12/25 08:33:33;;;;;;;;;;;;;;;;;;5036995;28;19920;-87
2023/12/25 08:35:59;;;;;;;;;;;;;;;;;;5036453;28;20018;-86
2023/12/25 08:38:25;;;;;;;;;;;;;;;;;;5036679;28;20038;-85
2023/12/25 08:40:51;;;;;;;;;;;;;;;;;;5045074;28;19921;-88
2023/12/25 08:43:17;;;;;;;;;;;;;;;;;;5041742;28;19939;-87
2023/12/25 08:45:43;;;;;;;;;;;;;;;;;;5064140;28;19959;-87
2023/12/25 08:48:09;;;;;;;;;;;;;;;;;;5059422;28;19921;-87
2023/12/25 08:50:35;;;;;;;;;;;;;;;;;;5065213;28;19932;-88
2023/12/25 08:53:01;;;;;;;;;;;;;;;;;;5055370;28;19924;-89
2023/12/25 08:55:28;;;;;;;;;;;;;;;;;;5052541;28;20007;-88
2023/12/25 08:57:57;;;;;;;;;;;;;;;;;;5065893;28;19927;-88
2023/12/25 09:00:23;;;;;;;;;;;;;;;;;;5060443;28;19920;-88
2023/12/25 09:02:49;;;;;;;;;;;;;;;;;;5053867;28;20388;-88
2023/12/25 09:05:15;;;;;;;;;;;;;;;;;;5054080;28;19928;-86
2023/12/25 09:07:41;;;;;;;;;;;;;;;;;;5070873;28;19924;-89
2023/12/25 09:10:07;;;;;;;;;;;;;;;;;;5056551;28;19931;-87
2023/12/25 09:12:33;;;;;;;;;;;;;;;;;;5056626;28;20023;-88
2023/12/25 09:14:59;;;;;;;;;;;;;;;;;;5050982;28;20016;-89
2023/12/25 09:17:25;;;;;;;;;;;;;;;;;;5044186;28;19924;-87
2023/12/25 09:19:51;;;;;;;;;;;;;;;;;;5049261;28;20100;-89
2023/12/25 09:22:17;;;;;;;;;;;;;;;;;;5070495;28;19988;-87
2023/12/25 09:24:44;;;;;;;;;;;;;;;;;;5054867;28;19982;-90
2023/12/25 09:27:10;;;;;;;;;;;;;;;;;;5053304;28;19936;-86
2023/12/25 09:29:36;;;;;;;;;;;;;;;;;;5058827;28;19924;-88
2023/12/25 09:32:02;;;;;;;;;;;;;;;;;;5058372;28;19924;-88
2023/12/25 09:34:28;;;;;;;;;;;;;;;;;;5059632;28;19972;-86
2023/12/25 09:36:55;;;;;;;;;;;;;;;;;;5059925;28;20019;-86
2023/12/25 09:39:21;;;;;;;;;;;;;;;;;;5061596;28;19920;-86
2023/12/25 09:41:47;;;;;;;;;;;;;;;;;;5054048;28;20211;-88
2023/12/25 09:44:13;;;;;;;;;;;;;;;;;;5052531;28;19932;-89
2023/12/25 09:46:39;;;;;;;;;;;;;;;;;;5033267;28;19921;-88
2023/12/25 09:49:05;;;;;;;;;;;;;;;;;;5031934;28;19947;-87
2023/12/25 09:51:34;;;;;;;;;;;;;;;;;;5039695;28;19925;-87
2023/12/25 09:54:00;;;;;;;;;;;;;;;;;;5036103;28;19924;-85
2023/12/25 09:56:26;;;;;;;;;;;;;;;;;;5036375;28;19931;-87
2023/12/25 09:58:52;;;;;;;;;;;;;;;;;;5035905;28;19924;-87
2023/12/25 10:01:18;;;;;;;;;;;;;;;;;;5038647;28;19985;-86
2023/12/25 10:03:45;;;;;;;;;;;;;;;;;;5034074;28;20481;-84
2023/12/25 10:06:11;;;;;;;;;;;;;;;;;;5052646;28;20353;-85
2023/12/25 10:08:37;;;;;;;;;;;;;;;;;;5038343;28;19920;-86
2023/12/25 10:11:13;;;;;;;;;;;;;;;;;;5036424;28;19920;-85
2023/12/25 10:13:39;;;;;;;;;;;;;;;;;;5030695;28;19924;-86
2023/12/25 10:16:05;;;;;;;;;;;;;;;;;;5036179;28;19964;-87
2023/12/25 10:18:31;;;;;;;;;;;;;;;;;;5033731;28;19956;-87
2023/12/25 10:20:57;;;;;;;;;;;;;;;;;;5037151;28;19928;-88
2023/12/25 10:23:23;;;;;;;;;;;;;;;;;;5036730;28;20270;-85
2023/12/25 10:25:49;;;;;;;;;;;;;;;;;;5052228;28;19925;-87
2023/12/25 10:28:15;;;;;;;;;;;;;;;;;;5030768;28;20043;-89
2023/12/25 10:30:42;;;;;;;;;;;;;;;;;;5051684;28;19920;-85
2023/12/25 10:33:08;;;;;;;;;;;;;;;;;;5034689;28;19935;-86
2023/12/25 10:35:33;;;;;;;;;;;;;;;;;;5024277;28;19920;-86
2023/12/25 10:37:59;;;;;;;;;;;;;;;;;;5027435;28;19920;-87
2023/12/25 10:40:25;;;;;;;;;;;;;;;;;;5018829;28;19925;-85
2023/12/25 10:42:51;;;;;;;;;;;;;;;;;;5025931;28;20346;-85
2023/12/25 10:45:22;;;;;;;;;;;;;;;;;;5030180;28;20373;-85
2023/12/25 10:47:47;;;;;;;;;;;;;;;;;;5035920;28;19924;-87
2023/12/25 10:50:13;;;;;;;;;;;;;;;;;;5041921;28;19947;-87
2023/12/25 10:52:39;;;;;;;;;;;;;;;;;;5052350;28;19972;-84
2023/12/25 10:55:05;;;;;;;;;;;;;;;;;;5053873;28;19924;-86
2023/12/25 10:57:31;;;;;;;;;;;;;;;;;;5032591;28;20011;-85
2023/12/25 10:59:57;;;;;;;;;;;;;;;;;;5030755;28;19921;-86
2023/12/25 11:02:23;;;;;;;;;;;;;;;;;;5030533;28;19932;-85
2023/12/25 11:04:50;;;;;;;;;;;;;;;;;;5032128;28;20341;-86
2023/12/25 11:07:17;;;;;;;;;;;;;;;;;;5026006;28;19920;-85
2023/12/25 11:09:43;;;;;;;;;;;;;;;;;;5035490;28;19995;-86
2023/12/25 11:12:09;;;;;;;;;;;;;;;;;;5029845;28;20021;-86
2023/12/25 11:14:35;;;;;;;;;;;;;;;;;;5032840;28;19928;-85
2023/12/25 11:17:01;;;;;;;;;;;;;;;;;;5032075;28;20366;-85
2023/12/25 11:19:27;;;;;;;;;;;;;;;;;;5033830;28;19928;-86
2023/12/25 11:21:53;;;;;;;;;;;;;;;;;;5028445;28;19921;-85
2023/12/25 11:24:19;;;;;;;;;;;;;;;;;;5051718;28;20023;-86
2023/12/25 11:26:45;;;;;;;;;;;;;;;;;;5035302;28;19924;-85
2023/12/25 11:29:11;;;;;;;;;;;;;;;;;;5033557;28;19935;-84
2023/12/25 11:31:37;;;;;;;;;;;;;;;;;;5046160;28;19933;-84
2023/12/25 11:34:03;;;;;;;;;;;;;;;;;;5042985;28;20399;-85
2023/12/25 11:36:29;;;;;;;;;;;;;;;;;;5036084;28;19920;-84
2023/12/25 11:38:55;;;;;;;;;;;;;;;;;;5056522;28;19971;-87
2023/12/25 11:41:21;;;;;;;;;;;;;;;;;;5032044;28;19924;-86
2023/12/25 11:43:47;;;;;;;;;;;;;;;;;;5049990;28;19946;-86
2023/12/25 11:46:14;;;;;;;;;;;;;;;;;;5057611;28;19924;-84
2023/12/25 11:48:40;;;;;;;;;;;;;;;;;;5051062;28;19951;-85
2023/12/25 11:51:06;;;;;;;;;;;;;;;;;;5055152;28;20493;-85
2023/12/25 11:53:32;;;;;;;;;;;;;;;;;;5047430;28;19925;-85
2023/12/25 11:55:58;;;;;;;;;;;;;;;;;;5067237;28;19951;-85
2023/12/25 11:58:24;;;;;;;;;;;;;;;;;;5064097;28;20260;-85
2023/12/25 12:00:50;;;;;;;;;;;;;;;;;;5055233;28;19924;-84
2023/12/25 12:03:16;;;;;;;;;;;;;;;;;;5049440;28;19920;-85
2023/12/25 12:05:44;;;;;;;;;;;;;;;;;;5082362;28;20287;-85
2023/12/25 12:08:10;;;;;;;;;;;;;;;;;;5065128;28;19921;-85
2023/12/25 12:10:36;;;;;;;;;;;;;;;;;;5048059;28;19931;-85
2023/12/25 12:13:01;;;;;;;;;;;;;;;;;;5054057;28;19927;-86
2023/12/25 12:15:27;;;;;;;;;;;;;;;;;;5055450;28;20383;-86
2023/12/25 12:17:53;;;;;;;;;;;;;;;;;;5056335;28;19928;-86
2023/12/25 12:20:20;;;;;;;;;;;;;;;;;;5051678;28;19928;-85
2023/12/25 12:22:46;;;;;;;;;;;;;;;;;;5055524;28;19973;-85
2023/12/25 12:25:12;;;;;;;;;;;;;;;;;;5070538;28;19924;-85
2023/12/25 12:27:38;;;;;;;;;;;;;;;;;;5054886;28;20034;-84
2023/12/25 12:30:04;;;;;;;;;;;;;;;;;;5054948;28;20022;-86
2023/12/25 12:32:30;;;;;;;;;;;;;;;;;;5047558;28;19928;-84
2023/12/25 12:34:56;;;;;;;;;;;;;;;;;;5045715;28;19920;-86
2023/12/25 12:37:22;;;;;;;;;;;;;;;;;;5054503;28;19957;-84
2023/12/25 12:39:48;;;;;;;;;;;;;;;;;;5069071;28;19935;-86
2023/12/25 12:42:14;;;;;;;;;;;;;;;;;;5043569;28;19924;-84
2023/12/25 12:44:40;;;;;;;;;;;;;;;;;;5069271;28;20265;-87
2023/12/25 12:47:07;;;;;;;;;;;;;;;;;;5069314;28;19924;-86
2023/12/25 12:49:33;;;;;;;;;;;;;;;;;;5051343;28;20403;-83
2023/12/25 12:52:00;;;;;;;;;;;;;;;;;;5045053;28;19924;-85
2023/12/25 12:54:25;;;;;;;;;;;;;;;;;;5051752;28;19989;-84
2023/12/25 12:56:51;;;;;;;;;;;;;;;;;;5061875;28;19967;-85
2023/12/25 12:59:17;;;;;;;;;;;;;;;;;;5056375;28;19924;-84
2023/12/25 13:01:43;;;;;;;;;;;;;;;;;;5052088;28;19985;-84
2023/12/25 13:04:09;;;;;;;;;;;;;;;;;;5058468;28;19928;-85
2023/12/25 13:06:35;;;;;;;;;;;;;;;;;;5059934;28;20407;-84
2023/12/25 13:09:03;;;;;;;;;;;;;;;;;;5062683;28;20016;-84
2023/12/25 13:11:30;;;;;;;;;;;;;;;;;;5057092;28;19935;-84
2023/12/25 13:13:56;;;;;;;;;;;;;;;;;;5056654;28;20150;-84
2023/12/25 13:16:21;;;;;;;;;;;;;;;;;;5054255;28;20015;-84
2023/12/25 13:18:48;;;;;;;;;;;;;;;;;;5051754;28;20363;-84
2023/12/25 13:21:14;;;;;;;;;;;;;;;;;;5053050;28;19930;-84
2023/12/25 13:23:42;;;;;;;;;;;;;;;;;;5051815;28;19938;-85
2023/12/25 13:26:08;;;;;;;;;;;;;;;;;;5053139;28;19973;-84
2023/12/25 13:28:34;;;;;;;;;;;;;;;;;;5052090;28;20257;-85
2023/12/25 13:31:00;;;;;;;;;;;;;;;;;;5046951;28;19932;-84
2023/12/25 13:33:26;;;;;;;;;;;;;;;;;;5051548;28;20011;-84
2023/12/25 13:35:52;;;;;;;;;;;;;;;;;;5055490;28;19921;-85
2023/12/25 13:38:18;;;;;;;;;;;;;;;;;;5047153;28;19925;-85
2023/12/25 13:40:44;;;;;;;;;;;;;;;;;;5053369;28;19920;-85
2023/12/25 13:43:09;;;;;;;;;;;;;;;;;;5080916;28;19927;-85
2023/12/25 13:45:36;;;;;;;;;;;;;;;;;;5040776;28;19935;-85
2023/12/25 13:48:02;;;;;;;;;;;;;;;;;;5040330;28;20342;-84
2023/12/25 13:50:28;;;;;;;;;;;;;;;;;;5052306;28;19927;-85
2023/12/25 13:52:55;;;;;;;;;;;;;;;;;;5038492;28;20319;-85
2023/12/25 13:55:20;;;;;;;;;;;;;;;;;;5045319;28;19928;-85
2023/12/25 13:57:47;;;;;;;;;;;;;;;;;;5023863;28;19932;-85
2023/12/25 14:00:13;;;;;;;;;;;9.50;99.90;;;;;;5038236;28;19936;-84
2023/12/25 14:02:39;;;;;;;;;;;9.40;99.90;;;;;;5020170;28;19985;-84
2023/12/25 14:05:05;;;;;;;;;;;9.40;99.90;;;;;;5047687;28;19929;-84
2023/12/25 14:07:31;;;;;;;;;;;9.40;99.90;;;;;;5026278;28;19968;-85
2023/12/25 14:09:57;;;;;;;;;;;9.40;99.90;;;;;;5021120;28;20326;-85
2023/12/25 14:12:22;;;;;;;;;;;9.40;99.90;;;;;;5036869;28;19978;-85
2023/12/25 14:14:48;;;;;;;;;;;9.40;99.90;;;;;;5023541;28;19932;-85
2023/12/25 14:17:13;;;;;;;;;;;9.40;99.90;;;;;;5029438;28;20003;-84
2023/12/25 14:19:39;;;;;;;;;;;9.30;99.90;;;;;;5018455;28;19925;-84
2023/12/25 14:22:05;;;;;;;;;;;9.30;99.90;;;;;;5032051;28;19983;-85
2023/12/25 14:24:38;;;;;;;;;;;9.30;99.90;;;;;;5018504;28;20491;-84
2023/12/25 14:27:05;;;;;;;;;;;9.30;99.90;;;;;;5021668;28;20338;-84
2023/12/25 14:29:31;;;;;;;;;;;9.40;99.90;;;;;;5038333;28;19920;-84
2023/12/25 14:31:56;;;;;;;;;;;9.30;99.90;;;;;;5034291;28;20289;-84
2023/12/25 14:34:22;;;;;;;;;;;9.30;99.90;;;;;;5024385;28;19931;-85
2023/12/25 14:36:48;;;;;;;;;;;9.40;99.90;;;;;;5017827;28;19978;-84
2023/12/25 14:39:13;;;;;;;;;;;9.30;99.90;;;;;;5023032;28;20009;-85
2023/12/25 14:41:40;;;;;;;;;;;9.30;99.90;;;;;;5052029;28;19963;-85
2023/12/25 14:44:06;;;;;;;;;;;9.30;99.90;;;;;;5013852;28;19925;-84
2023/12/25 14:46:31;;;;;;;;;;;9.30;99.90;;;;;;5018917;28;20349;-85
2023/12/25 14:48:57;;;;;;;;;;;9.30;99.90;;;;;;5016681;28;19925;-84
2023/12/25 14:51:23;;;;;;;;;;;9.20;99.90;;;;;;5023222;28;19924;-85
2023/12/25 14:53:49;;;;;;;;;;;9.20;99.90;;;;;;5015976;28;20306;-84
2023/12/25 14:56:14;;;;;;;;;;;9.30;99.90;;;;;;5035661;28;19929;-85
2023/12/25 14:58:40;;;;;;;;;;;9.20;99.90;;;;;;5018745;28;19936;-85
2023/12/25 15:01:06;;;;;;;;;;;9.20;99.90;;;;;;5034760;28;19921;-84
2023/12/25 15:03:33;;;;;;;;;;;9.20;99.90;;;;;;5036233;28;19920;-85
2023/12/25 15:05:59;;;;;;;;;;;9.30;99.90;;;;;;5038525;28;20315;-85
2023/12/25 15:08:25;;;;;;;;;;;9.20;99.90;;;;;;5037970;28;19924;-85
2023/12/25 15:10:50;;;;;;;;;;;9.20;99.90;;;;;;5037321;28;20037;-84
2023/12/25 15:13:16;;;;;;;;;;;9.20;99.90;;;;;;5019839;28;19924;-84
2023/12/25 15:15:44;;;;;;;;;;;9.10;99.90;;;;;;5018794;28;19920;-85
2023/12/25 15:18:12;;;;;;;;;;;9.20;99.90;;;;;;5036372;28;19920;-84
2023/12/25 15:20:39;;;;;;;;;;;9.20;99.90;;;;;;5048198;28;19932;-84
2023/12/25 15:23:05;;;;;;;;;;;9.10;99.90;;;;;;5020524;28;19958;-85
2023/12/25 15:25:31;;;;;;;;;;;9.10;99.90;;;;;;5020389;28;20274;-85
2023/12/25 15:27:56;;;;;;;;;;;9.20;99.90;;;;;;5027516;28;19924;-83
2023/12/25 15:30:22;;;;;;;;;;;9.20;99.90;;;;;;5018958;28;19920;-85
2023/12/25 15:32:48;;;;;;;;;;;9.20;99.90;;;;;;5021359;28;19928;-85
2023/12/25 15:35:13;;;;;;;;;;;9.20;99.90;;;;;;5033006;28;20034;-84
2023/12/25 15:37:39;;;;;;;;;;;9.20;99.90;;;;;;5022543;28;19921;-84
2023/12/25 15:40:05;;;;;;;;;;;9.10;99.90;;;;;;5017172;28;19935;-85